sensor_id;sensor_type;location;lat;lon;timestamp;P1;durP1;ratioP1;P2;durP2;ratioP2
20906;SDS011;10613;50.966;5.814;2024-02-26T00:02:43;1.75;;;1.75;;
20906;SDS011;10613;50.966;5.814;2024-02-26T00:06:49;1.50;;;1.50;;
20906;SDS011;10613;50.966;5.814;2024-02-26T00:10:57;1.00;;;1.00;;
20906;SDS011;10613;50.966;5.814;2024-02-26T00:15:05;3.00;;;3.00;;
20906;SDS011;10613;50.966;5.814;2024-02-26T00:19:15;3.00;;;3.00;;
20906;SDS011;10613;50.966;5.814;2024-02-26T00:23:21;3.25;;;3.25;;
20906;SDS011;10613;50.966;5.814;2024-02-26T00:27:29;1.00;;;1.00;;
20906;SDS011;10613;50.966;5.814;2024-02-26T00:31:36;3.50;;;3.00;;
20906;SDS011;10613;50.966;5.814;2024-02-26T00:35:43;1.50;;;1.50;;
20906;SDS011;10613;50.966;5.814;2024-02-26T00:39:50;3.00;;;3.00;;
20906;SDS011;10613;50.966;5.814;2024-02-26T00:43:59;1.50;;;1.50;;
20906;SDS011;10613;50.966;5.814;2024-02-26T00:48:06;3.00;;;3.00;;
20906;SDS011;10613;50.966;5.814;2024-02-26T00:52:13;1.00;;;1.00;;
20906;SDS011;10613;50.966;5.814;2024-02-26T00:56:21;2.00;;;2.00;;
20906;SDS011;10613;50.966;5.814;2024-02-26T01:00:28;1.50;;;1.50;;
20906;SDS011;10613;50.966;5.814;2024-02-26T01:04:35;1.50;;;1.50;;
20906;SDS011;10613;50.966;5.814;2024-02-26T01:08:42;3.25;;;3.25;;
20906;SDS011;10613;50.966;5.814;2024-02-26T01:12:49;3.00;;;3.00;;
20906;SDS011;10613;50.966;5.814;2024-02-26T01:16:56;1.00;;;1.00;;
20906;SDS011;10613;50.966;5.814;2024-02-26T01:21:03;1.75;;;1.75;;
20906;SDS011;10613;50.966;5.814;2024-02-26T01:25:13;1.00;;;1.00;;
20906;SDS011;10613;50.966;5.814;2024-02-26T01:29:20;1.00;;;1.00;;
20906;SDS011;10613;50.966;5.814;2024-02-26T01:33:34;1.50;;;1.50;;
20906;SDS011;10613;50.966;5.814;2024-02-26T01:37:41;1.00;;;1.00;;
20906;SDS011;10613;50.966;5.814;2024-02-26T01:41:48;2.00;;;2.00;;
20906;SDS011;10613;50.966;5.814;2024-02-26T01:45:56;2.75;;;2.75;;
20906;SDS011;10613;50.966;5.814;2024-02-26T01:50:03;1.00;;;1.00;;
20906;SDS011;10613;50.966;5.814;2024-02-26T01:54:10;3.75;;;3.75;;
20906;SDS011;10613;50.966;5.814;2024-02-26T01:58:16;3.00;;;3.00;;
20906;SDS011;10613;50.966;5.814;2024-02-26T02:02:23;2.25;;;2.25;;
20906;SDS011;10613;50.966;5.814;2024-02-26T02:06:31;2.25;;;2.25;;
20906;SDS011;10613;50.966;5.814;2024-02-26T02:10:38;1.00;;;1.00;;
20906;SDS011;10613;50.966;5.814;2024-02-26T02:14:44;1.75;;;1.75;;
20906;SDS011;10613;50.966;5.814;2024-02-26T02:18:51;2.25;;;2.25;;
20906;SDS011;10613;50.966;5.814;2024-02-26T02:22:59;1.00;;;1.00;;
20906;SDS011;10613;50.966;5.814;2024-02-26T02:27:06;1.50;;;1.50;;
20906;SDS011;10613;50.966;5.814;2024-02-26T02:31:13;2.75;;;2.75;;
20906;SDS011;10613;50.966;5.814;2024-02-26T02:35:20;1.00;;;1.00;;
20906;SDS011;10613;50.966;5.814;2024-02-26T02:39:27;2.25;;;2.25;;
20906;SDS011;10613;50.966;5.814;2024-02-26T02:43:34;2.50;;;2.50;;
20906;SDS011;10613;50.966;5.814;2024-02-26T02:47:41;3.00;;;1.00;;
20906;SDS011;10613;50.966;5.814;2024-02-26T02:51:48;1.00;;;1.00;;
20906;SDS011;10613;50.966;5.814;2024-02-26T02:55:55;3.00;;;3.00;;
20906;SDS011;10613;50.966;5.814;2024-02-26T03:00:02;2.75;;;2.75;;
20906;SDS011;10613;50.966;5.814;2024-02-26T03:04:10;3.00;;;3.00;;
20906;SDS011;10613;50.966;5.814;2024-02-26T03:08:17;1.00;;;1.00;;
20906;SDS011;10613;50.966;5.814;2024-02-26T03:12:24;1.00;;;1.00;;
20906;SDS011;10613;50.966;5.814;2024-02-26T03:16:31;1.00;;;1.00;;
20906;SDS011;10613;50.966;5.814;2024-02-26T03:20:38;2.75;;;2.75;;
20906;SDS011;10613;50.966;5.814;2024-02-26T03:24:45;3.00;;;3.00;;
20906;SDS011;10613;50.966;5.814;2024-02-26T03:28:52;1.00;;;1.00;;
20906;SDS011;10613;50.966;5.814;2024-02-26T03:32:59;2.00;;;2.00;;
20906;SDS011;10613;50.966;5.814;2024-02-26T03:37:06;1.50;;;1.50;;
20906;SDS011;10613;50.966;5.814;2024-02-26T03:41:14;2.00;;;2.00;;
20906;SDS011;10613;50.966;5.814;2024-02-26T03:45:21;1.00;;;1.00;;
20906;SDS011;10613;50.966;5.814;2024-02-26T03:49:28;1.00;;;1.00;;
20906;SDS011;10613;50.966;5.814;2024-02-26T03:53:35;2.00;;;2.00;;
20906;SDS011;10613;50.966;5.814;2024-02-26T03:57:43;2.00;;;2.00;;
20906;SDS011;10613;50.966;5.814;2024-02-26T04:01:50;3.00;;;1.75;;
20906;SDS011;10613;50.966;5.814;2024-02-26T04:05:57;2.50;;;2.50;;
20906;SDS011;10613;50.966;5.814;2024-02-26T04:10:08;1.00;;;1.00;;
20906;SDS011;10613;50.966;5.814;2024-02-26T04:14:15;1.00;;;1.00;;
20906;SDS011;10613;50.966;5.814;2024-02-26T04:18:22;2.00;;;1.00;;
20906;SDS011;10613;50.966;5.814;2024-02-26T04:22:29;1.00;;;1.00;;
20906;SDS011;10613;50.966;5.814;2024-02-26T04:26:36;2.00;;;2.00;;
20906;SDS011;10613;50.966;5.814;2024-02-26T04:30:44;1.00;;;1.00;;
20906;SDS011;10613;50.966;5.814;2024-02-26T04:34:51;3.00;;;3.00;;
20906;SDS011;10613;50.966;5.814;2024-02-26T04:39:05;3.00;;;3.00;;
20906;SDS011;10613;50.966;5.814;2024-02-26T04:43:13;1.00;;;1.00;;
20906;SDS011;10613;50.966;5.814;2024-02-26T04:47:21;2.50;;;2.50;;
20906;SDS011;10613;50.966;5.814;2024-02-26T04:51:35;1.00;;;1.00;;
20906;SDS011;10613;50.966;5.814;2024-02-26T04:55:42;1.00;;;1.00;;
20906;SDS011;10613;50.966;5.814;2024-02-26T04:59:49;1.00;;;1.00;;
20906;SDS011;10613;50.966;5.814;2024-02-26T05:03:56;1.00;;;1.00;;
20906;SDS011;10613;50.966;5.814;2024-02-26T05:08:03;3.00;;;3.00;;
20906;SDS011;10613;50.966;5.814;2024-02-26T05:12:10;1.00;;;1.00;;
20906;SDS011;10613;50.966;5.814;2024-02-26T05:16:17;1.00;;;1.00;;
20906;SDS011;10613;50.966;5.814;2024-02-26T05:20:24;1.00;;;1.00;;
20906;SDS011;10613;50.966;5.814;2024-02-26T05:24:31;3.00;;;3.00;;
20906;SDS011;10613;50.966;5.814;2024-02-26T05:28:38;4.00;;;4.00;;
20906;SDS011;10613;50.966;5.814;2024-02-26T05:32:46;3.00;;;3.00;;
20906;SDS011;10613;50.966;5.814;2024-02-26T05:36:53;2.50;;;2.50;;
20906;SDS011;10613;50.966;5.814;2024-02-26T05:41:00;3.00;;;3.00;;
20906;SDS011;10613;50.966;5.814;2024-02-26T05:45:07;1.50;;;1.50;;
20906;SDS011;10613;50.966;5.814;2024-02-26T05:49:14;1.00;;;1.00;;
20906;SDS011;10613;50.966;5.814;2024-02-26T05:53:21;1.00;;;1.00;;
20906;SDS011;10613;50.966;5.814;2024-02-26T05:57:28;1.00;;;1.00;;
20906;SDS011;10613;50.966;5.814;2024-02-26T06:01:42;1.00;;;1.00;;
20906;SDS011;10613;50.966;5.814;2024-02-26T06:05:49;3.00;;;3.00;;
20906;SDS011;10613;50.966;5.814;2024-02-26T06:09:56;1.50;;;1.50;;
20906;SDS011;10613;50.966;5.814;2024-02-26T06:14:03;1.00;;;1.00;;
20906;SDS011;10613;50.966;5.814;2024-02-26T06:18:10;3.00;;;3.00;;
20906;SDS011;10613;50.966;5.814;2024-02-26T06:22:17;1.00;;;1.00;;
20906;SDS011;10613;50.966;5.814;2024-02-26T06:26:24;2.50;;;2.50;;
20906;SDS011;10613;50.966;5.814;2024-02-26T06:30:31;3.00;;;3.00;;
20906;SDS011;10613;50.966;5.814;2024-02-26T06:34:38;3.50;;;3.50;;
20906;SDS011;10613;50.966;5.814;2024-02-26T06:38:45;1.75;;;1.75;;
20906;SDS011;10613;50.966;5.814;2024-02-26T06:42:52;3.00;;;3.00;;
20906;SDS011;10613;50.966;5.814;2024-02-26T06:46:59;1.25;;;1.25;;
20906;SDS011;10613;50.966;5.814;2024-02-26T06:51:06;1.50;;;1.50;;
20906;SDS011;10613;50.966;5.814;2024-02-26T06:55:13;3.00;;;3.00;;
20906;SDS011;10613;50.966;5.814;2024-02-26T06:59:20;3.00;;;1.00;;
20906;SDS011;10613;50.966;5.814;2024-02-26T07:03:27;3.00;;;3.00;;
20906;SDS011;10613;50.966;5.814;2024-02-26T07:07:34;4.00;;;3.00;;
20906;SDS011;10613;50.966;5.814;2024-02-26T07:11:41;1.00;;;1.00;;
20906;SDS011;10613;50.966;5.814;2024-02-26T07:15:51;1.00;;;1.00;;
20906;SDS011;10613;50.966;5.814;2024-02-26T07:19:58;3.00;;;3.00;;
20906;SDS011;10613;50.966;5.814;2024-02-26T07:24:05;1.00;;;1.00;;
20906;SDS011;10613;50.966;5.814;2024-02-26T07:28:12;2.50;;;2.50;;
20906;SDS011;10613;50.966;5.814;2024-02-26T07:32:19;1.00;;;1.00;;
20906;SDS011;10613;50.966;5.814;2024-02-26T07:36:26;1.00;;;1.00;;
20906;SDS011;10613;50.966;5.814;2024-02-26T07:40:33;3.75;;;3.75;;
20906;SDS011;10613;50.966;5.814;2024-02-26T07:44:40;1.00;;;1.00;;
20906;SDS011;10613;50.966;5.814;2024-02-26T07:48:49;2.00;;;2.00;;
20906;SDS011;10613;50.966;5.814;2024-02-26T07:52:56;4.50;;;3.00;;
20906;SDS011;10613;50.966;5.814;2024-02-26T07:57:03;1.75;;;1.75;;
20906;SDS011;10613;50.966;5.814;2024-02-26T08:01:15;3.00;;;3.00;;
20906;SDS011;10613;50.966;5.814;2024-02-26T08:05:22;3.00;;;3.00;;
20906;SDS011;10613;50.966;5.814;2024-02-26T08:09:29;3.75;;;3.00;;
20906;SDS011;10613;50.966;5.814;2024-02-26T08:13:36;3.00;;;3.00;;
20906;SDS011;10613;50.966;5.814;2024-02-26T08:17:43;3.75;;;1.50;;
20906;SDS011;10613;50.966;5.814;2024-02-26T08:21:50;3.00;;;3.00;;
20906;SDS011;10613;50.966;5.814;2024-02-26T08:25:57;2.00;;;2.00;;
20906;SDS011;10613;50.966;5.814;2024-02-26T08:30:04;3.00;;;3.00;;
20906;SDS011;10613;50.966;5.814;2024-02-26T08:34:11;1.00;;;1.00;;
20906;SDS011;10613;50.966;5.814;2024-02-26T08:38:18;2.50;;;2.50;;
20906;SDS011;10613;50.966;5.814;2024-02-26T08:42:25;4.00;;;3.00;;
20906;SDS011;10613;50.966;5.814;2024-02-26T08:46:32;3.00;;;3.00;;
20906;SDS011;10613;50.966;5.814;2024-02-26T08:50:39;3.50;;;3.50;;
20906;SDS011;10613;50.966;5.814;2024-02-26T08:54:46;3.00;;;3.00;;
20906;SDS011;10613;50.966;5.814;2024-02-26T08:58:54;2.50;;;2.50;;
20906;SDS011;10613;50.966;5.814;2024-02-26T09:03:03;3.00;;;3.00;;
20906;SDS011;10613;50.966;5.814;2024-02-26T09:07:10;3.00;;;3.00;;
20906;SDS011;10613;50.966;5.814;2024-02-26T09:11:17;3.00;;;3.00;;
20906;SDS011;10613;50.966;5.814;2024-02-26T09:15:24;2.75;;;2.75;;
20906;SDS011;10613;50.966;5.814;2024-02-26T09:19:31;3.00;;;3.00;;
20906;SDS011;10613;50.966;5.814;2024-02-26T09:23:38;3.00;;;3.00;;
20906;SDS011;10613;50.966;5.814;2024-02-26T09:27:46;2.00;;;1.50;;
20906;SDS011;10613;50.966;5.814;2024-02-26T09:31:53;2.50;;;2.50;;
20906;SDS011;10613;50.966;5.814;2024-02-26T09:36:07;3.00;;;3.00;;
20906;SDS011;10613;50.966;5.814;2024-02-26T09:40:14;3.00;;;3.00;;
20906;SDS011;10613;50.966;5.814;2024-02-26T09:44:21;3.00;;;3.00;;
20906;SDS011;10613;50.966;5.814;2024-02-26T09:48:29;5.00;;;5.00;;
20906;SDS011;10613;50.966;5.814;2024-02-26T09:52:37;3.00;;;3.00;;
20906;SDS011;10613;50.966;5.814;2024-02-26T09:56:44;4.00;;;4.00;;
20906;SDS011;10613;50.966;5.814;2024-02-26T10:00:56;3.00;;;3.00;;
20906;SDS011;10613;50.966;5.814;2024-02-26T10:05:05;3.50;;;3.50;;
20906;SDS011;10613;50.966;5.814;2024-02-26T10:09:13;4.00;;;4.00;;
20906;SDS011;10613;50.966;5.814;2024-02-26T10:13:22;3.00;;;3.00;;
20906;SDS011;10613;50.966;5.814;2024-02-26T10:17:29;3.00;;;3.00;;
20906;SDS011;10613;50.966;5.814;2024-02-26T10:21:36;3.00;;;3.00;;
20906;SDS011;10613;50.966;5.814;2024-02-26T10:25:52;3.00;;;3.00;;
20906;SDS011;10613;50.966;5.814;2024-02-26T10:30:02;2.00;;;2.00;;
20906;SDS011;10613;50.966;5.814;2024-02-26T10:34:09;1.75;;;1.75;;
20906;SDS011;10613;50.966;5.814;2024-02-26T10:38:23;3.50;;;3.50;;
20906;SDS011;10613;50.966;5.814;2024-02-26T10:42:30;3.00;;;3.00;;
20906;SDS011;10613;50.966;5.814;2024-02-26T10:46:37;3.00;;;3.00;;
20906;SDS011;10613;50.966;5.814;2024-02-26T10:50:44;3.75;;;3.75;;
20906;SDS011;10613;50.966;5.814;2024-02-26T10:54:56;3.75;;;3.75;;
20906;SDS011;10613;50.966;5.814;2024-02-26T10:59:04;3.00;;;3.00;;
20906;SDS011;10613;50.966;5.814;2024-02-26T11:03:14;3.00;;;3.00;;
20906;SDS011;10613;50.966;5.814;2024-02-26T11:07:23;3.00;;;3.00;;
20906;SDS011;10613;50.966;5.814;2024-02-26T11:11:31;4.00;;;4.00;;
20906;SDS011;10613;50.966;5.814;2024-02-26T11:15:38;3.00;;;3.00;;
20906;SDS011;10613;50.966;5.814;2024-02-26T11:19:46;3.00;;;3.00;;
20906;SDS011;10613;50.966;5.814;2024-02-26T11:23:54;3.00;;;3.00;;
20906;SDS011;10613;50.966;5.814;2024-02-26T11:28:03;1.00;;;1.00;;
20906;SDS011;10613;50.966;5.814;2024-02-26T11:32:10;4.00;;;3.50;;
20906;SDS011;10613;50.966;5.814;2024-02-26T11:36:17;3.00;;;3.00;;
20906;SDS011;10613;50.966;5.814;2024-02-26T11:40:24;1.50;;;1.50;;
20906;SDS011;10613;50.966;5.814;2024-02-26T11:44:34;3.75;;;3.75;;
20906;SDS011;10613;50.966;5.814;2024-02-26T11:48:42;3.00;;;3.00;;
20906;SDS011;10613;50.966;5.814;2024-02-26T11:53:19;2.50;;;2.50;;
20906;SDS011;10613;50.966;5.814;2024-02-26T11:57:23;3.00;;;3.00;;
20906;SDS011;10613;50.966;5.814;2024-02-26T12:01:45;1.25;;;1.25;;
20906;SDS011;10613;50.966;5.814;2024-02-26T12:05:54;3.00;;;3.00;;
20906;SDS011;10613;50.966;5.814;2024-02-26T12:14:26;1.75;;;1.75;;
20906;SDS011;10613;50.966;5.814;2024-02-26T12:18:33;3.75;;;3.75;;
20906;SDS011;10613;50.966;5.814;2024-02-26T12:22:41;3.50;;;3.50;;
20906;SDS011;10613;50.966;5.814;2024-02-26T12:26:57;3.00;;;2.00;;
20906;SDS011;10613;50.966;5.814;2024-02-26T12:31:04;3.00;;;3.00;;
20906;SDS011;10613;50.966;5.814;2024-02-26T12:35:11;3.00;;;3.00;;
20906;SDS011;10613;50.966;5.814;2024-02-26T12:39:19;3.25;;;3.25;;
20906;SDS011;10613;50.966;5.814;2024-02-26T12:43:27;3.00;;;3.00;;
20906;SDS011;10613;50.966;5.814;2024-02-26T12:47:35;2.50;;;2.50;;
20906;SDS011;10613;50.966;5.814;2024-02-26T12:51:43;3.00;;;3.00;;
20906;SDS011;10613;50.966;5.814;2024-02-26T12:55:50;5.25;;;5.25;;
20906;SDS011;10613;50.966;5.814;2024-02-26T12:59:58;3.25;;;3.25;;
20906;SDS011;10613;50.966;5.814;2024-02-26T13:04:05;3.00;;;3.00;;
20906;SDS011;10613;50.966;5.814;2024-02-26T13:08:20;2.75;;;2.75;;
20906;SDS011;10613;50.966;5.814;2024-02-26T13:12:27;3.00;;;3.00;;
20906;SDS011;10613;50.966;5.814;2024-02-26T13:16:34;4.00;;;4.00;;
20906;SDS011;10613;50.966;5.814;2024-02-26T13:20:41;5.25;;;5.00;;
20906;SDS011;10613;50.966;5.814;2024-02-26T13:24:55;3.25;;;3.25;;
20906;SDS011;10613;50.966;5.814;2024-02-26T13:29:02;1.00;;;1.00;;
20906;SDS011;10613;50.966;5.814;2024-02-26T13:33:12;3.25;;;3.25;;
20906;SDS011;10613;50.966;5.814;2024-02-26T13:37:19;4.75;;;4.75;;
20906;SDS011;10613;50.966;5.814;2024-02-26T13:41:26;3.00;;;3.00;;
20906;SDS011;10613;50.966;5.814;2024-02-26T13:45:34;3.75;;;3.75;;
20906;SDS011;10613;50.966;5.814;2024-02-26T13:49:40;3.00;;;3.00;;
20906;SDS011;10613;50.966;5.814;2024-02-26T13:53:47;5.00;;;3.50;;
20906;SDS011;10613;50.966;5.814;2024-02-26T13:57:55;4.00;;;4.00;;
20906;SDS011;10613;50.966;5.814;2024-02-26T14:02:01;3.50;;;3.50;;
20906;SDS011;10613;50.966;5.814;2024-02-26T14:06:08;3.00;;;3.00;;
20906;SDS011;10613;50.966;5.814;2024-02-26T14:10:15;3.00;;;3.00;;
20906;SDS011;10613;50.966;5.814;2024-02-26T14:14:22;3.25;;;3.25;;
20906;SDS011;10613;50.966;5.814;2024-02-26T14:18:29;3.00;;;3.00;;
20906;SDS011;10613;50.966;5.814;2024-02-26T14:22:36;5.00;;;4.00;;
20906;SDS011;10613;50.966;5.814;2024-02-26T14:26:43;3.75;;;3.75;;
20906;SDS011;10613;50.966;5.814;2024-02-26T14:30:50;6.50;;;6.50;;
20906;SDS011;10613;50.966;5.814;2024-02-26T14:34:57;4.00;;;3.00;;
20906;SDS011;10613;50.966;5.814;2024-02-26T14:39:04;3.25;;;3.25;;
20906;SDS011;10613;50.966;5.814;2024-02-26T14:43:11;3.50;;;3.50;;
20906;SDS011;10613;50.966;5.814;2024-02-26T14:47:19;6.00;;;6.00;;
20906;SDS011;10613;50.966;5.814;2024-02-26T14:51:25;5.50;;;5.50;;
20906;SDS011;10613;50.966;5.814;2024-02-26T14:55:32;4.00;;;4.00;;
20906;SDS011;10613;50.966;5.814;2024-02-26T14:59:40;4.00;;;4.00;;
20906;SDS011;10613;50.966;5.814;2024-02-26T15:03:47;4.00;;;4.00;;
20906;SDS011;10613;50.966;5.814;2024-02-26T15:07:54;4.00;;;4.00;;
20906;SDS011;10613;50.966;5.814;2024-02-26T15:12:01;5.75;;;3.75;;
20906;SDS011;10613;50.966;5.814;2024-02-26T15:16:16;3.25;;;3.25;;
20906;SDS011;10613;50.966;5.814;2024-02-26T15:20:23;5.00;;;5.00;;
20906;SDS011;10613;50.966;5.814;2024-02-26T15:24:30;6.00;;;6.00;;
20906;SDS011;10613;50.966;5.814;2024-02-26T15:28:37;8.50;;;8.50;;
20906;SDS011;10613;50.966;5.814;2024-02-26T15:32:44;7.00;;;6.75;;
20906;SDS011;10613;50.966;5.814;2024-02-26T15:36:51;6.00;;;6.00;;
20906;SDS011;10613;50.966;5.814;2024-02-26T15:40:58;7.00;;;7.00;;
20906;SDS011;10613;50.966;5.814;2024-02-26T15:45:05;6.75;;;6.75;;
20906;SDS011;10613;50.966;5.814;2024-02-26T15:49:12;6.00;;;6.00;;
20906;SDS011;10613;50.966;5.814;2024-02-26T15:53:19;4.00;;;4.00;;
20906;SDS011;10613;50.966;5.814;2024-02-26T15:57:26;4.00;;;4.00;;
20906;SDS011;10613;50.966;5.814;2024-02-26T16:01:33;5.00;;;5.00;;
20906;SDS011;10613;50.966;5.814;2024-02-26T16:05:40;4.00;;;4.00;;
20906;SDS011;10613;50.966;5.814;2024-02-26T16:09:51;6.00;;;6.00;;
20906;SDS011;10613;50.966;5.814;2024-02-26T16:14:14;4.00;;;4.00;;
20906;SDS011;10613;50.966;5.814;2024-02-26T16:18:23;4.00;;;4.00;;
20906;SDS011;10613;50.966;5.814;2024-02-26T16:22:30;6.00;;;6.00;;
20906;SDS011;10613;50.966;5.814;2024-02-26T16:26:38;6.00;;;6.00;;
20906;SDS011;10613;50.966;5.814;2024-02-26T16:30:45;4.00;;;4.00;;
20906;SDS011;10613;50.966;5.814;2024-02-26T16:34:52;5.00;;;4.50;;
20906;SDS011;10613;50.966;5.814;2024-02-26T16:39:06;4.00;;;4.00;;
20906;SDS011;10613;50.966;5.814;2024-02-26T16:43:13;7.75;;;6.75;;
20906;SDS011;10613;50.966;5.814;2024-02-26T16:47:20;6.50;;;6.00;;
20906;SDS011;10613;50.966;5.814;2024-02-26T16:51:27;6.00;;;6.00;;
20906;SDS011;10613;50.966;5.814;2024-02-26T16:55:34;6.00;;;6.00;;
20906;SDS011;10613;50.966;5.814;2024-02-26T16:59:41;5.00;;;5.00;;
20906;SDS011;10613;50.966;5.814;2024-02-26T17:03:48;5.75;;;5.00;;
20906;SDS011;10613;50.966;5.814;2024-02-26T17:07:55;6.00;;;6.00;;
20906;SDS011;10613;50.966;5.814;2024-02-26T17:12:16;4.00;;;4.00;;
20906;SDS011;10613;50.966;5.814;2024-02-26T17:16:23;3.50;;;3.50;;
20906;SDS011;10613;50.966;5.814;2024-02-26T17:20:38;3.25;;;3.25;;
20906;SDS011;10613;50.966;5.814;2024-02-26T17:24:44;7.00;;;6.00;;
20906;SDS011;10613;50.966;5.814;2024-02-26T17:28:54;6.50;;;6.50;;
20906;SDS011;10613;50.966;5.814;2024-02-26T17:33:03;9.00;;;8.00;;
20906;SDS011;10613;50.966;5.814;2024-02-26T17:37:09;7.00;;;6.00;;
20906;SDS011;10613;50.966;5.814;2024-02-26T17:41:17;6.75;;;6.25;;
20906;SDS011;10613;50.966;5.814;2024-02-26T17:45:25;5.00;;;5.00;;
20906;SDS011;10613;50.966;5.814;2024-02-26T17:49:32;6.00;;;6.00;;
20906;SDS011;10613;50.966;5.814;2024-02-26T17:53:46;6.00;;;6.00;;
20906;SDS011;10613;50.966;5.814;2024-02-26T17:58:01;6.00;;;6.00;;
20906;SDS011;10613;50.966;5.814;2024-02-26T18:02:14;9.00;;;7.00;;
20906;SDS011;10613;50.966;5.814;2024-02-26T18:06:22;4.00;;;4.00;;
20906;SDS011;10613;50.966;5.814;2024-02-26T18:10:29;6.00;;;6.00;;
20906;SDS011;10613;50.966;5.814;2024-02-26T18:14:36;6.75;;;5.50;;
20906;SDS011;10613;50.966;5.814;2024-02-26T18:18:43;5.00;;;5.00;;
20906;SDS011;10613;50.966;5.814;2024-02-26T18:22:54;4.50;;;4.50;;
20906;SDS011;10613;50.966;5.814;2024-02-26T18:27:01;6.00;;;6.00;;
20906;SDS011;10613;50.966;5.814;2024-02-26T18:31:08;7.00;;;6.00;;
20906;SDS011;10613;50.966;5.814;2024-02-26T18:35:15;7.00;;;6.00;;
20906;SDS011;10613;50.966;5.814;2024-02-26T18:39:22;6.00;;;4.00;;
20906;SDS011;10613;50.966;5.814;2024-02-26T18:43:29;5.50;;;5.50;;
20906;SDS011;10613;50.966;5.814;2024-02-26T18:47:38;6.50;;;6.50;;
20906;SDS011;10613;50.966;5.814;2024-02-26T18:51:45;6.75;;;5.50;;
20906;SDS011;10613;50.966;5.814;2024-02-26T18:55:52;6.00;;;6.00;;
20906;SDS011;10613;50.966;5.814;2024-02-26T18:59:59;5.00;;;4.00;;
20906;SDS011;10613;50.966;5.814;2024-02-26T19:04:06;5.00;;;5.00;;
20906;SDS011;10613;50.966;5.814;2024-02-26T19:08:13;6.00;;;6.00;;
20906;SDS011;10613;50.966;5.814;2024-02-26T19:12:22;6.00;;;6.00;;
20906;SDS011;10613;50.966;5.814;2024-02-26T19:16:30;6.25;;;6.25;;
20906;SDS011;10613;50.966;5.814;2024-02-26T19:20:41;7.00;;;7.00;;
20906;SDS011;10613;50.966;5.814;2024-02-26T19:24:48;7.00;;;7.00;;
20906;SDS011;10613;50.966;5.814;2024-02-26T19:28:55;4.00;;;4.00;;
20906;SDS011;10613;50.966;5.814;2024-02-26T19:33:02;8.00;;;6.50;;
20906;SDS011;10613;50.966;5.814;2024-02-26T19:37:10;4.00;;;4.00;;
20906;SDS011;10613;50.966;5.814;2024-02-26T19:41:17;4.00;;;4.00;;
20906;SDS011;10613;50.966;5.814;2024-02-26T19:45:24;4.00;;;4.00;;
20906;SDS011;10613;50.966;5.814;2024-02-26T19:49:31;7.00;;;6.00;;
20906;SDS011;10613;50.966;5.814;2024-02-26T19:53:38;4.00;;;4.00;;
20906;SDS011;10613;50.966;5.814;2024-02-26T19:57:45;5.25;;;5.00;;
20906;SDS011;10613;50.966;5.814;2024-02-26T20:01:52;5.00;;;5.00;;
20906;SDS011;10613;50.966;5.814;2024-02-26T20:05:59;5.50;;;5.00;;
20906;SDS011;10613;50.966;5.814;2024-02-26T20:10:06;4.00;;;4.00;;
20906;SDS011;10613;50.966;5.814;2024-02-26T20:14:15;4.00;;;4.00;;
20906;SDS011;10613;50.966;5.814;2024-02-26T20:18:23;6.00;;;6.00;;
20906;SDS011;10613;50.966;5.814;2024-02-26T20:22:30;6.00;;;6.00;;
20906;SDS011;10613;50.966;5.814;2024-02-26T20:26:40;4.00;;;4.00;;
20906;SDS011;10613;50.966;5.814;2024-02-26T20:30:50;4.00;;;4.00;;
20906;SDS011;10613;50.966;5.814;2024-02-26T20:34:57;6.75;;;6.75;;
20906;SDS011;10613;50.966;5.814;2024-02-26T20:39:04;6.25;;;5.50;;
20906;SDS011;10613;50.966;5.814;2024-02-26T20:43:11;4.50;;;4.50;;
20906;SDS011;10613;50.966;5.814;2024-02-26T20:47:18;5.00;;;5.00;;
20906;SDS011;10613;50.966;5.814;2024-02-26T20:51:25;4.00;;;4.00;;
20906;SDS011;10613;50.966;5.814;2024-02-26T20:55:32;6.00;;;6.00;;
20906;SDS011;10613;50.966;5.814;2024-02-26T20:59:40;4.00;;;4.00;;
20906;SDS011;10613;50.966;5.814;2024-02-26T21:03:49;6.75;;;5.00;;
20906;SDS011;10613;50.966;5.814;2024-02-26T21:07:56;8.50;;;6.75;;
20906;SDS011;10613;50.966;5.814;2024-02-26T21:12:03;4.00;;;4.00;;
20906;SDS011;10613;50.966;5.814;2024-02-26T21:16:10;4.00;;;4.00;;
20906;SDS011;10613;50.966;5.814;2024-02-26T21:20:17;6.00;;;6.00;;
20906;SDS011;10613;50.966;5.814;2024-02-26T21:24:26;3.75;;;3.75;;
20906;SDS011;10613;50.966;5.814;2024-02-26T21:28:33;6.00;;;6.00;;
20906;SDS011;10613;50.966;5.814;2024-02-26T21:32:40;6.00;;;6.00;;
20906;SDS011;10613;50.966;5.814;2024-02-26T21:36:47;3.50;;;3.50;;
20906;SDS011;10613;50.966;5.814;2024-02-26T21:40:54;4.50;;;4.50;;
20906;SDS011;10613;50.966;5.814;2024-02-26T21:45:01;4.50;;;4.00;;
20906;SDS011;10613;50.966;5.814;2024-02-26T21:49:08;6.00;;;6.00;;
20906;SDS011;10613;50.966;5.814;2024-02-26T21:53:15;6.00;;;6.00;;
20906;SDS011;10613;50.966;5.814;2024-02-26T21:57:22;8.50;;;6.50;;
20906;SDS011;10613;50.966;5.814;2024-02-26T22:01:29;6.00;;;6.00;;
20906;SDS011;10613;50.966;5.814;2024-02-26T22:05:36;4.00;;;4.00;;
20906;SDS011;10613;50.966;5.814;2024-02-26T22:09:44;6.00;;;6.00;;
20906;SDS011;10613;50.966;5.814;2024-02-26T22:13:51;6.00;;;6.00;;
20906;SDS011;10613;50.966;5.814;2024-02-26T22:17:58;6.50;;;6.50;;
20906;SDS011;10613;50.966;5.814;2024-02-26T22:22:07;5.00;;;5.00;;
20906;SDS011;10613;50.966;5.814;2024-02-26T22:26:14;5.00;;;5.00;;
20906;SDS011;10613;50.966;5.814;2024-02-26T22:30:21;5.00;;;4.00;;
20906;SDS011;10613;50.966;5.814;2024-02-26T22:34:28;6.00;;;6.00;;
20906;SDS011;10613;50.966;5.814;2024-02-26T22:38:35;6.00;;;6.00;;
20906;SDS011;10613;50.966;5.814;2024-02-26T22:42:42;4.25;;;3.25;;
20906;SDS011;10613;50.966;5.814;2024-02-26T22:46:49;9.00;;;7.00;;
20906;SDS011;10613;50.966;5.814;2024-02-26T22:50:56;3.50;;;3.50;;
20906;SDS011;10613;50.966;5.814;2024-02-26T22:55:03;4.00;;;4.00;;
20906;SDS011;10613;50.966;5.814;2024-02-26T22:59:11;3.25;;;3.25;;
20906;SDS011;10613;50.966;5.814;2024-02-26T23:03:18;6.00;;;4.00;;
20906;SDS011;10613;50.966;5.814;2024-02-26T23:07:26;5.50;;;5.50;;
20906;SDS011;10613;50.966;5.814;2024-02-26T23:11:33;5.00;;;5.00;;
20906;SDS011;10613;50.966;5.814;2024-02-26T23:15:40;6.25;;;4.50;;
20906;SDS011;10613;50.966;5.814;2024-02-26T23:19:47;4.00;;;4.00;;
20906;SDS011;10613;50.966;5.814;2024-02-26T23:23:54;6.00;;;6.00;;
20906;SDS011;10613;50.966;5.814;2024-02-26T23:28:02;6.00;;;6.00;;
20906;SDS011;10613;50.966;5.814;2024-02-26T23:32:09;4.00;;;4.00;;
20906;SDS011;10613;50.966;5.814;2024-02-26T23:36:16;4.00;;;4.00;;
20906;SDS011;10613;50.966;5.814;2024-02-26T23:40:23;3.75;;;3.75;;
20906;SDS011;10613;50.966;5.814;2024-02-26T23:44:31;6.00;;;6.00;;
20906;SDS011;10613;50.966;5.814;2024-02-26T23:48:40;6.50;;;4.00;;
20906;SDS011;10613;50.966;5.814;2024-02-26T23:52:48;4.00;;;4.00;;
20906;SDS011;10613;50.966;5.814;2024-02-26T23:57:09;6.00;;;4.50;;
